createdAt,value
2022-12-19T00:02:12.789Z,36.36
2022-12-19T00:04:43.153Z,36.50
2022-12-19T00:07:13.475Z,36.27
2022-12-19T00:09:43.989Z,36.13
2022-12-19T00:12:18.993Z,36.03
2022-12-19T00:14:50.723Z,36.39
2022-12-19T00:17:23.617Z,36.84
2022-12-19T00:19:54.408Z,37.31
2022-12-19T00:22:24.802Z,37.82
2022-12-19T00:24:55.188Z,38.26
2022-12-19T00:27:25.486Z,38.94
2022-12-19T00:29:55.800Z,39.49
2022-12-19T00:32:28.768Z,39.62
2022-12-19T00:34:59.178Z,39.69
2022-12-19T00:37:31.384Z,40.15
2022-12-19T00:40:01.671Z,40.14
2022-12-19T00:42:32.312Z,40.70
2022-12-19T00:45:04.227Z,40.96
2022-12-19T00:47:38.142Z,41.11
2022-12-19T00:50:09.435Z,41.32
2022-12-19T00:52:39.426Z,41.52
2022-12-19T00:55:16.398Z,41.92
2022-12-19T00:57:49.529Z,42.22
2022-12-19T01:00:23.025Z,42.51
2022-12-19T01:02:56.207Z,42.80
2022-12-19T01:05:26.524Z,42.61
2022-12-19T01:07:56.876Z,42.94
2022-12-19T01:10:27.212Z,43.04
2022-12-19T01:12:55.046Z,42.69
2022-12-19T01:15:25.419Z,42.68
2022-12-19T01:17:58.301Z,42.80
2022-12-19T01:20:29.449Z,43.44
2022-12-19T01:23:01.112Z,44.50
2022-12-19T01:25:32.241Z,44.32
2022-12-19T01:28:04.320Z,44.85
2022-12-19T01:30:36.836Z,44.79
2022-12-19T01:33:14.931Z,44.91
2022-12-19T01:35:46.833Z,44.78
2022-12-19T01:38:19.138Z,44.84
2022-12-19T01:40:54.230Z,44.90
2022-12-19T01:43:25.729Z,44.24
2022-12-19T01:46:00.456Z,44.63
2022-12-19T01:48:38.334Z,44.48
2022-12-19T01:51:17.164Z,44.84
2022-12-19T01:53:53.149Z,44.82
2022-12-19T01:56:29.114Z,44.67
2022-12-19T01:59:06.444Z,44.54
2022-12-19T02:01:51.746Z,44.81
2022-12-19T02:04:32.158Z,45.17
2022-12-19T02:07:15.900Z,44.98
2022-12-19T02:09:50.582Z,45.41
2022-12-19T02:12:32.587Z,45.58
2022-12-19T02:15:05.116Z,45.83
2022-12-19T02:17:46.658Z,46.04
2022-12-19T02:21:12.695Z,45.85
2022-12-19T02:24:28.501Z,46.32
2022-12-19T02:27:12.411Z,46.32
2022-12-19T02:30:10.613Z,46.61
2022-12-19T02:32:59.755Z,46.90
2022-12-19T02:35:37.141Z,46.79
2022-12-19T02:38:17.998Z,46.96
2022-12-19T02:40:55.638Z,46.94
2022-12-19T02:43:31.677Z,46.91
2022-12-19T02:46:04.102Z,46.61
2022-12-19T02:48:41.268Z,46.67
2022-12-19T02:51:12.147Z,46.30
2022-12-19T02:53:43.171Z,45.80
2022-12-19T02:56:37.324Z,46.92
2022-12-19T02:59:28.659Z,46.88
2022-12-19T03:02:05.760Z,46.15
2022-12-19T03:04:55.649Z,45.57
2022-12-19T03:07:37.475Z,45.66
2022-12-19T03:10:27.661Z,46.15
2022-12-19T03:13:03.931Z,46.51
2022-12-19T03:15:36.510Z,46.69
2022-12-19T03:18:07.354Z,46.17
2022-12-19T03:20:53.098Z,46.19
2022-12-19T03:23:23.805Z,46.50
2022-12-19T03:25:58.939Z,46.14
2022-12-19T03:28:38.154Z,46.66
2022-12-19T03:31:10.702Z,46.28
2022-12-19T03:33:44.294Z,46.91
2022-12-19T03:36:24.275Z,46.83
2022-12-19T03:38:55.810Z,47.17
2022-12-19T03:41:41.838Z,47.12
2022-12-19T03:44:13.621Z,47.14
2022-12-19T03:46:50.101Z,47.04
2022-12-19T03:49:20.571Z,46.97
2022-12-19T03:52:00.942Z,46.86
2022-12-19T03:54:36.138Z,46.96
2022-12-19T03:57:13.518Z,47.15
2022-12-19T03:59:51.279Z,47.13
2022-12-19T04:02:24.066Z,47.03
2022-12-19T04:04:58.427Z,46.93
2022-12-19T04:07:31.742Z,46.97
2022-12-19T04:10:04.555Z,46.90
2022-12-19T04:12:41.394Z,47.04
2022-12-19T04:15:13.786Z,46.84
2022-12-19T04:17:50.921Z,47.32
2022-12-19T04:20:24.371Z,47.45
2022-12-19T04:23:03.494Z,47.34
2022-12-19T04:25:39.054Z,47.54
2022-12-19T04:28:19.144Z,47.35
2022-12-19T04:30:50.559Z,47.47
2022-12-19T04:33:20.921Z,47.59
2022-12-19T04:35:51.529Z,47.55
2022-12-19T04:38:24.579Z,47.38
2022-12-19T04:40:54.872Z,47.63
2022-12-19T04:43:25.120Z,47.34
2022-12-19T04:45:57.546Z,47.21
2022-12-19T04:48:28.815Z,47.38
2022-12-19T04:51:00.055Z,47.23
2022-12-19T04:53:33.199Z,47.17
2022-12-19T04:56:04.234Z,47.49
2022-12-19T04:58:35.294Z,47.22
2022-12-19T05:01:06.449Z,47.59
2022-12-19T05:03:37.823Z,47.44
2022-12-19T05:06:11.360Z,47.24
2022-12-19T05:08:46.327Z,47.56
2022-12-19T05:11:19.890Z,47.49
2022-12-19T05:13:50.837Z,47.67
2022-12-19T05:16:21.240Z,47.61
2022-12-19T05:18:51.540Z,48.06
2022-12-19T05:21:21.836Z,47.68
2022-12-19T05:23:54.786Z,47.69
2022-12-19T05:26:25.219Z,47.67
2022-12-19T05:28:55.456Z,47.45
2022-12-19T05:31:25.806Z,47.91
2022-12-19T05:33:56.053Z,47.54
2022-12-19T05:36:32.140Z,47.44
2022-12-19T05:39:05.426Z,47.33
2022-12-19T05:41:35.781Z,47.43
2022-12-19T05:44:06.186Z,47.34
2022-12-19T05:46:36.623Z,47.45
2022-12-19T05:49:07.022Z,47.55
2022-12-19T05:51:37.619Z,47.34
2022-12-19T05:54:10.640Z,47.58
2022-12-19T05:56:40.974Z,47.63
2022-12-19T05:59:11.439Z,47.40
2022-12-19T06:01:42.270Z,48.03
2022-12-19T06:04:12.731Z,47.55
2022-12-19T06:06:43.039Z,47.62
2022-12-19T06:09:15.997Z,47.80
2022-12-19T06:11:46.324Z,47.54
2022-12-19T06:14:16.633Z,47.44
2022-12-19T06:16:46.955Z,47.84
2022-12-19T06:19:17.680Z,47.30
2022-12-19T06:21:48.693Z,46.97
2022-12-19T06:24:21.777Z,46.87
2022-12-19T06:26:52.107Z,47.21
2022-12-19T06:29:22.765Z,46.99
2022-12-19T06:31:53.413Z,47.19
2022-12-19T06:34:54.914Z,47.49
2022-12-19T06:37:15.484Z,47.49
2022-12-19T06:39:48.484Z,47.33
2022-12-19T06:42:24.794Z,47.26
2022-12-19T06:44:56.638Z,47.15
2022-12-19T06:47:27.720Z,47.34
2022-12-19T06:49:58.088Z,47.50
2022-12-19T06:52:28.388Z,47.51
2022-12-19T06:55:01.674Z,47.40
2022-12-19T06:57:31.964Z,47.15
2022-12-19T07:00:02.266Z,47.18
2022-12-19T07:02:35.179Z,47.01
2022-12-19T07:05:10.186Z,47.37
2022-12-19T07:07:41.449Z,47.43
2022-12-19T07:10:15.802Z,47.64
2022-12-19T07:12:46.192Z,47.58
2022-12-19T07:15:16.736Z,47.62
2022-12-19T07:17:47.157Z,47.52
2022-12-19T07:20:19.319Z,47.40
2022-12-19T07:22:51.317Z,47.73
2022-12-19T07:25:24.429Z,47.97
2022-12-19T07:27:56.139Z,48.47
2022-12-19T07:30:26.480Z,48.66
2022-12-19T07:32:57.411Z,48.51
2022-12-19T07:35:28.272Z,48.40
2022-12-19T07:38:04.612Z,48.40
2022-12-19T07:40:38.338Z,48.37
2022-12-19T07:43:09.958Z,48.08
2022-12-19T07:45:41.414Z,48.40
2022-12-19T07:48:11.805Z,48.41
2022-12-19T07:50:42.614Z,48.25
2022-12-19T07:53:12.989Z,48.23
2022-12-19T07:55:45.968Z,48.30
2022-12-19T07:58:19.065Z,49.34
2022-12-19T08:00:49.515Z,48.43
2022-12-19T08:03:19.932Z,48.46
2022-12-19T08:05:50.340Z,48.02
2022-12-19T08:08:21.541Z,47.68
2022-12-19T08:10:54.629Z,47.99
2022-12-19T08:13:25.118Z,47.65
2022-12-19T08:15:55.515Z,47.50
2022-12-19T08:18:26.060Z,48.40
2022-12-19T08:20:56.489Z,47.72
2022-12-19T08:23:27.697Z,47.67
2022-12-19T08:26:08.113Z,48.31
2022-12-19T08:28:40.138Z,48.41
2022-12-19T08:31:12.893Z,48.73
2022-12-19T08:33:43.612Z,49.28
2022-12-19T08:36:17.041Z,49.85
2022-12-19T08:38:47.754Z,49.90
2022-12-19T08:41:21.472Z,50.62
2022-12-19T08:43:53.431Z,51.05
2022-12-19T08:46:24.742Z,51.31
2022-12-19T08:48:54.814Z,51.78
2022-12-19T08:51:25.844Z,51.83
2022-12-19T08:53:56.654Z,52.54
2022-12-19T08:56:29.644Z,52.67
2022-12-19T08:58:59.938Z,52.68
2022-12-19T09:01:30.462Z,53.52
2022-12-19T09:04:02.732Z,53.88
2022-12-19T09:06:53.304Z,54.14
2022-12-19T09:09:23.678Z,54.38
2022-12-19T09:11:56.669Z,54.90
2022-12-19T09:14:27.001Z,55.50
2022-12-19T09:16:57.726Z,55.65
2022-12-19T09:19:29.926Z,56.02
2022-12-19T09:22:00.488Z,56.41
2022-12-19T09:24:31.109Z,56.75
2022-12-19T09:27:04.132Z,56.90
2022-12-19T09:29:35.834Z,57.03
2022-12-19T09:32:06.574Z,57.56
2022-12-19T09:34:38.970Z,57.55
2022-12-19T09:37:16.042Z,57.64
2022-12-19T09:39:47.002Z,57.89
2022-12-19T09:42:59.454Z,58.33
2022-12-19T09:45:44.643Z,58.87
2022-12-19T09:48:24.623Z,59.15
2022-12-19T09:51:10.057Z,59.36
2022-12-19T09:53:54.424Z,60.26
2022-12-19T09:56:30.021Z,61.21
2022-12-19T09:59:16.887Z,61.23
2022-12-19T10:01:59.934Z,60.99
2022-12-19T10:04:34.637Z,60.29
2022-12-19T10:07:16.374Z,60.02
2022-12-19T10:12:36.495Z,60.30
2022-12-19T10:13:12.833Z,59.68
2022-12-19T10:16:00.450Z,59.97
2022-12-19T10:18:48.422Z,60.05
2022-12-19T10:22:08.082Z,60.54
2022-12-19T10:25:08.640Z,61.35
2022-12-19T10:27:59.446Z,61.56
2022-12-19T10:30:32.214Z,61.69
2022-12-19T10:33:20.641Z,62.69
2022-12-19T10:36:02.110Z,62.92
2022-12-19T10:38:40.550Z,63.65
2022-12-19T10:41:26.167Z,63.45
2022-12-19T10:44:06.029Z,63.64
2022-12-19T10:46:42.920Z,64.85
2022-12-19T10:49:22.087Z,65.64
2022-12-19T10:52:04.975Z,66.90
2022-12-19T10:54:45.775Z,67.99
2022-12-19T10:57:28.030Z,69.22
2022-12-19T11:00:04.177Z,69.79
2022-12-19T11:02:44.945Z,71.07
2022-12-19T11:05:33.185Z,71.98
2022-12-19T11:08:06.389Z,73.26
2022-12-19T11:12:28.633Z,73.88
2022-12-19T11:18:56.752Z,74.35
2022-12-19T11:21:54.542Z,75.14
2022-12-19T11:29:25.026Z,76.12
2022-12-19T11:29:34.221Z,76.43
2022-12-19T11:30:26.153Z,77.94
2022-12-19T11:30:59.589Z,77.06
2022-12-19T11:34:19.213Z,78.94
2022-12-19T11:36:55.894Z,79.12
2022-12-19T11:39:36.956Z,79.75
2022-12-19T11:42:15.395Z,80.66
2022-12-19T11:44:53.849Z,81.03
2022-12-19T11:47:38.922Z,81.39
2022-12-19T11:50:18.570Z,82.11
2022-12-19T11:53:04.490Z,83.41
2022-12-19T11:55:45.888Z,83.95
2022-12-19T11:58:17.159Z,84.93
2022-12-19T12:00:54.419Z,85.27
2022-12-19T12:04:01.032Z,85.44
2022-12-19T12:06:38.570Z,86.74
2022-12-19T12:12:35.942Z,87.14
2022-12-19T12:19:06.838Z,88.24
2022-12-19T12:30:06.479Z,89.25
2022-12-19T12:31:05.267Z,90.40
2022-12-19T12:31:30.804Z,91.68
2022-12-19T12:31:42.403Z,92.98
2022-12-19T12:32:02.270Z,92.32
2022-12-19T12:35:38.055Z,95.23
2022-12-19T12:35:47.062Z,94.07
2022-12-19T12:38:22.636Z,96.66
2022-12-19T12:41:12.730Z,97.19
2022-12-19T12:44:09.393Z,97.64
2022-12-19T12:46:46.107Z,98.00
2022-12-19T12:49:38.973Z,98.44
2022-12-19T12:52:12.903Z,99.25
2022-12-19T12:54:48.340Z,99.40
2022-12-19T12:57:36.816Z,99.55
2022-12-19T13:00:37.861Z,99.54
2022-12-19T13:03:14.588Z,100.00
2022-12-19T13:05:57.314Z,100.00
2022-12-19T13:08:42.170Z,100.00
2022-12-19T13:11:38.956Z,100.00
2022-12-19T13:14:45.104Z,100.00
2022-12-19T13:17:27.442Z,100.00
2022-12-19T13:20:00.695Z,100.00
2022-12-19T13:23:05.436Z,100.00
2022-12-19T13:25:55.629Z,100.00
2022-12-19T13:28:43.771Z,100.00
2022-12-19T13:31:23.814Z,100.00
2022-12-19T13:34:22.749Z,100.00
2022-12-19T13:39:59.502Z,100.00
2022-12-19T13:40:12.226Z,100.00
2022-12-19T13:43:09.893Z,100.00
2022-12-19T13:45:44.834Z,100.00
2022-12-19T13:48:23.069Z,100.00
2022-12-19T13:50:58.090Z,100.00
2022-12-19T13:53:32.043Z,100.00
2022-12-19T13:56:07.896Z,100.00
2022-12-19T13:58:48.959Z,100.00
2022-12-19T14:01:26.923Z,100.00
2022-12-19T14:04:07.641Z,100.00
2022-12-19T14:06:47.285Z,100.00
2022-12-19T14:11:26.714Z,100.00
2022-12-19T14:13:43.069Z,100.00
2022-12-19T14:15:33.158Z,100.00
2022-12-19T14:18:44.411Z,100.00
2022-12-19T14:22:05.275Z,100.00
2022-12-19T14:24:20.522Z,100.00
2022-12-19T14:28:24.645Z,100.00
2022-12-19T14:30:29.930Z,100.00
2022-12-19T14:33:46.309Z,100.00
2022-12-19T14:36:06.580Z,100.00
2022-12-19T14:39:23.275Z,100.00
2022-12-19T14:42:00.917Z,100.00
2022-12-19T14:52:51.828Z,100.00
2022-12-19T14:53:10.811Z,100.00
2022-12-19T14:54:26.939Z,100.00
2022-12-19T14:54:28.468Z,100.00
2022-12-19T14:59:34.810Z,100.00
2022-12-19T15:02:27.922Z,100.00
2022-12-19T15:05:06.603Z,100.00
2022-12-19T15:07:38.025Z,100.00
2022-12-19T15:11:06.609Z,100.00
2022-12-19T15:14:54.846Z,100.00
2022-12-19T15:16:27.890Z,100.00
2022-12-19T15:19:02.165Z,100.00
2022-12-19T15:21:35.136Z,100.00
2022-12-19T15:24:05.658Z,100.00
2022-12-19T15:26:38.533Z,100.00
2022-12-19T15:29:19.813Z,100.00
2022-12-19T15:31:55.031Z,100.00
2022-12-19T15:34:41.551Z,100.00
2022-12-19T15:37:16.839Z,100.00
2022-12-19T15:39:48.307Z,100.00
2022-12-19T15:42:24.886Z,100.00
2022-12-19T15:44:58.142Z,100.00
2022-12-19T15:47:35.098Z,100.00
2022-12-19T15:50:18.646Z,100.00
2022-12-19T15:52:49.329Z,100.00
2022-12-19T15:55:22.215Z,100.00
2022-12-19T15:57:57.518Z,100.00
2022-12-19T16:00:31.689Z,100.00
2022-12-19T16:05:55.537Z,100.00
2022-12-19T16:08:28.365Z,100.00
2022-12-19T16:11:02.132Z,100.00
2022-12-19T16:13:35.537Z,100.00
2022-12-19T16:16:15.098Z,100.00
2022-12-19T16:18:49.300Z,100.00
2022-12-19T16:21:33.223Z,100.00
2022-12-19T16:24:04.478Z,100.00
2022-12-19T16:26:38.021Z,100.00
2022-12-19T16:29:08.891Z,100.00
2022-12-19T16:31:39.280Z,100.00
2022-12-19T16:34:19.433Z,100.00
2022-12-19T16:36:49.991Z,100.00
2022-12-19T16:39:20.924Z,100.00
2022-12-19T16:41:51.337Z,100.00
2022-12-19T16:44:25.579Z,100.00
2022-12-19T16:46:56.087Z,100.00
2022-12-19T16:49:29.042Z,100.00
2022-12-19T16:51:59.400Z,100.00
2022-12-19T16:54:29.759Z,100.00
2022-12-19T16:57:00.171Z,100.00
2022-12-19T16:59:35.808Z,100.00
2022-12-19T17:02:35.558Z,100.00
2022-12-19T17:05:10.704Z,100.00
2022-12-19T17:07:41.066Z,100.00
2022-12-19T17:10:12.976Z,100.00
2022-12-19T17:12:45.098Z,100.00
2022-12-19T17:15:30.397Z,100.00
2022-12-19T17:18:02.914Z,100.00
2022-12-19T17:20:41.935Z,100.00
2022-12-19T17:23:18.782Z,100.00
2022-12-19T17:25:49.706Z,100.00
2022-12-19T17:28:20.988Z,100.00
2022-12-19T17:30:57.432Z,100.00
2022-12-19T17:33:34.525Z,100.00
2022-12-19T17:36:10.364Z,100.00
2022-12-19T17:38:40.744Z,100.00
2022-12-19T17:41:18.389Z,100.00
2022-12-19T17:43:48.666Z,100.00
2022-12-19T17:46:21.302Z,100.00
2022-12-19T17:48:54.278Z,100.00
2022-12-19T17:51:27.449Z,100.00
2022-12-19T17:53:57.808Z,100.00
2022-12-19T17:56:28.153Z,100.00
2022-12-19T17:58:58.591Z,100.00
2022-12-19T18:01:29.254Z,100.00
2022-12-19T18:03:59.857Z,100.00
2022-12-19T18:06:32.824Z,100.00
2022-12-19T18:09:03.793Z,100.00
2022-12-19T18:11:40.038Z,100.00
2022-12-19T18:14:12.591Z,100.00
2022-12-19T18:16:43.246Z,100.00
2022-12-19T18:19:20.711Z,100.00
2022-12-19T18:21:53.819Z,100.00
2022-12-19T18:24:24.295Z,100.00
2022-12-19T18:26:55.756Z,100.00
2022-12-19T18:29:26.298Z,100.00
2022-12-19T18:31:58.096Z,100.00
2022-12-19T18:34:36.406Z,100.00
2022-12-19T18:37:16.599Z,100.00
2022-12-19T18:39:46.898Z,100.00
2022-12-19T18:42:23.569Z,100.00
2022-12-19T18:44:53.864Z,100.00
2022-12-19T18:47:26.507Z,100.00
2022-12-19T18:49:56.808Z,100.00
2022-12-19T18:52:29.736Z,100.00
2022-12-19T18:55:00.078Z,100.00
2022-12-19T18:57:30.398Z,100.00
2022-12-19T19:00:00.716Z,99.52
2022-12-19T19:02:32.215Z,99.08
2022-12-19T19:05:02.723Z,98.86
2022-12-19T19:07:35.657Z,99.27
2022-12-19T19:10:18.784Z,100.00
2022-12-19T19:13:02.679Z,99.93
2022-12-19T19:15:38.441Z,99.30
2022-12-19T19:18:11.328Z,98.94
2022-12-19T19:20:43.883Z,98.63
2022-12-19T19:23:17.560Z,98.15
2022-12-19T19:25:48.403Z,97.68
2022-12-19T19:28:19.096Z,97.39
2022-12-19T19:30:49.768Z,97.36
2022-12-19T19:33:23.757Z,97.23
2022-12-19T19:35:59.783Z,97.58
2022-12-19T19:38:33.730Z,98.28
2022-12-19T19:41:04.007Z,98.41
2022-12-19T19:43:35.677Z,99.09
2022-12-19T19:46:06.481Z,99.51
2022-12-19T19:48:37.006Z,99.37
2022-12-19T19:51:07.850Z,98.19
2022-12-19T19:53:40.953Z,97.21
2022-12-19T19:56:11.520Z,97.13
2022-12-19T19:58:42.021Z,96.99
2022-12-19T20:01:13.694Z,96.91
2022-12-19T20:03:45.204Z,96.81
2022-12-19T20:06:15.743Z,96.29
2022-12-19T20:08:49.418Z,95.99
2022-12-19T20:11:20.586Z,95.61
2022-12-19T20:13:51.106Z,95.09
2022-12-19T20:16:22.576Z,94.94
2022-12-19T20:18:55.580Z,94.68
2022-12-19T20:21:26.602Z,94.19
2022-12-19T20:23:59.773Z,93.77
2022-12-19T20:26:30.336Z,93.32
2022-12-19T20:29:00.738Z,92.89
2022-12-19T20:31:32.577Z,92.01
2022-12-19T20:34:02.983Z,91.47
2022-12-19T20:36:33.286Z,90.96
2022-12-19T20:39:07.675Z,91.06
2022-12-19T20:41:38.238Z,90.74
2022-12-19T20:44:08.820Z,90.30
2022-12-19T20:46:39.233Z,89.86
2022-12-19T20:49:09.695Z,89.07
2022-12-19T20:51:40.741Z,88.82
2022-12-19T20:54:13.630Z,88.59
2022-12-19T20:56:45.190Z,88.42
2022-12-19T20:59:15.871Z,88.10
2022-12-19T21:01:46.423Z,87.54
2022-12-19T21:04:17.172Z,87.62
2022-12-19T21:06:47.752Z,87.42
2022-12-19T21:09:20.833Z,87.13
2022-12-19T21:11:51.193Z,86.80
2022-12-19T21:14:21.575Z,86.46
2022-12-19T21:16:51.937Z,85.65
2022-12-19T21:19:22.273Z,85.29
2022-12-19T21:21:52.564Z,85.40
2022-12-19T21:24:25.633Z,85.00
2022-12-19T21:26:58.270Z,85.23
2022-12-19T21:29:28.959Z,85.66
2022-12-19T21:31:59.293Z,85.72
2022-12-19T21:34:29.694Z,85.72
2022-12-19T21:37:00.110Z,85.66
2022-12-19T21:39:33.518Z,85.44
2022-12-19T21:42:03.709Z,85.12
2022-12-19T21:44:34.298Z,84.91
2022-12-19T21:47:04.825Z,84.71
2022-12-19T21:49:35.167Z,85.16
2022-12-19T21:52:05.461Z,85.50
2022-12-19T21:54:38.435Z,85.94
2022-12-19T21:57:08.846Z,86.17
2022-12-19T21:59:39.182Z,86.08
2022-12-19T22:02:11.521Z,86.29
2022-12-19T22:04:41.933Z,86.33
2022-12-19T22:07:12.228Z,86.04
2022-12-19T22:09:45.516Z,85.92
2022-12-19T22:12:16.242Z,86.08
2022-12-19T22:14:46.886Z,85.69
2022-12-19T22:17:17.470Z,85.54
2022-12-19T22:19:48.595Z,85.46
2022-12-19T22:22:18.962Z,85.07
2022-12-19T22:24:51.882Z,84.88
2022-12-19T22:27:22.202Z,84.21
2022-12-19T22:29:52.494Z,83.84
2022-12-19T22:32:22.832Z,83.79
2022-12-19T22:34:53.367Z,83.57
2022-12-19T22:37:23.768Z,83.95
2022-12-19T22:40:00.226Z,83.92
2022-12-19T22:42:31.062Z,83.82
2022-12-19T22:45:01.475Z,84.07
2022-12-19T22:47:31.819Z,84.26
2022-12-19T22:50:02.122Z,84.45
2022-12-19T22:52:32.387Z,84.60
2022-12-19T22:55:05.654Z,84.76
2022-12-19T22:57:36.192Z,84.71
2022-12-19T23:00:20.182Z,84.76
2022-12-19T23:02:50.713Z,84.77
2022-12-19T23:05:21.488Z,84.74
2022-12-19T23:07:52.041Z,84.68
2022-12-19T23:10:25.166Z,84.26
2022-12-19T23:12:55.505Z,83.99
2022-12-19T23:15:25.793Z,83.71
2022-12-19T23:17:56.124Z,83.58
2022-12-19T23:20:26.471Z,83.66
2022-12-19T23:22:56.734Z,83.68
2022-12-19T23:25:29.662Z,83.67
2022-12-19T23:28:00.429Z,83.88
2022-12-19T23:30:30.845Z,84.25
2022-12-19T23:33:01.232Z,84.50
2022-12-19T23:35:32.311Z,84.89
2022-12-19T23:38:02.673Z,84.24
2022-12-19T23:40:35.582Z,83.44
2022-12-19T23:43:06.149Z,82.98
2022-12-19T23:45:41.718Z,82.63
2022-12-19T23:48:12.233Z,82.74
2022-12-19T23:50:42.577Z,82.91
2022-12-19T23:53:12.942Z,82.98
2022-12-19T23:55:45.911Z,82.88
2022-12-19T23:58:22.323Z,83.10
